Time;durP1;ratioP1;P1;durP2;ratioP2;P2;SDS_P1;SDS_P2;PMS_P1;PMS_P2;Temp;Humidity;BMP_temperature;BMP_pressure;BME280_temperature;BME280_humidity;BME280_pressure;Samples;Min_cycle;Max_cycle;Signal;HPM_P1;HPM_P2
2022/09/15 00:01:08;;;;;;;7.90;3.22;;;14.70;90.00;;;;;;4878175;29;20438;-84
2022/09/15 00:03:35;;;;;;;7.18;3.75;;;14.70;89.90;;;;;;4874642;29;20095;-84
2022/09/15 00:06:03;;;;;;;6.03;3.13;;;14.80;90.00;;;;;;4840981;29;20103;-84
2022/09/15 00:08:30;;;;;;;6.60;3.53;;;14.80;89.80;;;;;;4872188;29;20086;-85
2022/09/15 00:11:16;;;;;;;5.60;3.50;;;14.90;89.80;;;;;;4900358;29;20409;-85
2022/09/15 00:13:43;;;;;;;8.00;3.50;;;15.00;89.70;;;;;;4888424;29;20044;-84
2022/09/15 00:16:12;;;;;;;6.28;3.72;;;15.00;89.80;;;;;;4880309;29;20071;-84
2022/09/15 00:18:42;;;;;;;6.85;2.92;;;15.00;89.70;;;;;;4874154;29;20437;-84
2022/09/15 00:21:16;;;;;;;5.65;2.97;;;15.10;89.80;;;;;;4865424;29;20406;-84
2022/09/15 00:23:44;;;;;;;7.45;3.20;;;15.10;89.80;;;;;;4869711;29;20460;-85
2022/09/15 00:26:14;;;;;;;6.38;2.85;;;15.10;89.70;;;;;;4894168;29;20096;-85
2022/09/15 00:28:42;;;;;;;8.88;3.67;;;15.20;89.70;;;;;;4890434;29;20053;-85
2022/09/15 00:31:13;;;;;;;6.65;3.83;;;15.20;89.80;;;;;;4871230;29;20778;-83
2022/09/15 00:33:40;;;;;;;8.77;4.72;;;15.20;89.90;;;;;;4866345;29;20048;-85
2022/09/15 00:36:10;;;;;;;8.80;4.32;;;15.20;89.90;;;;;;4881057;29;20131;-83
2022/09/15 00:38:40;;;;;;;12.57;4.80;;;15.30;89.90;;;;;;4881107;29;20045;-83
2022/09/15 00:41:10;;;;;;;9.52;5.72;;;15.20;89.90;;;;;;4847250;29;20041;-83
2022/09/15 00:43:55;;;;;;;8.55;4.85;;;15.20;90.10;;;;;;4883948;29;20054;-84
2022/09/15 00:46:27;;;;;;;8.27;4.82;;;15.20;90.20;;;;;;4888789;29;20048;-84
2022/09/15 00:49:06;;;;;;;9.73;4.57;;;15.10;90.20;;;;;;4870445;29;20045;-84
2022/09/15 00:51:42;;;;;;;9.30;4.95;;;15.10;90.30;;;;;;4869213;29;20140;-84
2022/09/15 00:54:14;;;;;;;7.93;5.13;;;15.10;90.70;;;;;;4899483;29;20572;-83
2022/09/15 00:56:44;;;;;;;8.07;4.65;;;15.10;90.60;;;;;;4904022;29;20057;-84
2022/09/15 00:59:15;;;;;;;8.98;4.90;;;15.10;90.50;;;;;;4868067;29;20041;-83
2022/09/15 01:01:48;;;;;;;7.72;4.05;;;15.10;90.50;;;;;;4854982;29;20053;-84
2022/09/15 01:04:15;;;;;;;6.45;3.28;;;15.10;90.50;;;;;;4868975;29;20049;-83
2022/09/15 01:06:51;;;;;;;7.68;3.58;;;15.10;90.50;;;;;;4855373;29;20567;-83
2022/09/15 01:09:24;;;;;;;7.07;3.55;;;15.10;90.50;;;;;;4874971;29;20455;-85
2022/09/15 01:11:51;;;;;;;7.65;3.30;;;15.10;90.50;;;;;;4848711;29;20049;-84
2022/09/15 01:14:18;;;;;;;7.05;3.85;;;15.10;90.50;;;;;;4867220;29;20200;-83
2022/09/15 01:16:57;;;;;;;7.20;3.83;;;15.10;90.60;;;;;;4866197;29;20053;-84
2022/09/15 01:19:42;;;;;;;5.40;3.15;;;15.10;90.60;;;;;;4880871;29;20045;-83
2022/09/15 01:22:42;;;;;;;7.40;3.38;;;15.10;90.60;;;;;;4874292;29;20093;-83
2022/09/15 01:25:26;;;;;;;5.95;2.85;;;15.10;90.60;;;;;;4855453;29;20113;-83
2022/09/15 01:28:31;;;;;;;8.23;3.20;;;15.10;90.70;;;;;;4878161;29;20052;-83
2022/09/15 01:31:12;;;;;;;7.25;3.42;;;15.00;90.70;;;;;;4850454;29;20128;-84
2022/09/15 01:33:48;;;;;;;6.18;2.65;;;15.00;90.80;;;;;;4869332;29;20139;-84
2022/09/15 01:36:41;;;;;;;4.07;2.42;;;14.90;90.80;;;;;;4860090;29;20084;-84
2022/09/15 01:39:19;;;;;;;5.47;2.25;;;14.90;90.90;;;;;;4832000;29;20053;-84
2022/09/15 01:41:54;;;;;;;7.60;3.30;;;14.90;90.90;;;;;;4862629;29;20059;-84
2022/09/15 01:44:26;;;;;;;5.25;2.53;;;14.80;91.00;;;;;;4855829;29;20113;-83
2022/09/15 01:46:57;;;;;;;4.43;2.33;;;14.80;90.90;;;;;;4880383;29;20053;-83
2022/09/15 01:49:36;;;;;;;6.95;2.80;;;14.90;91.00;;;;;;4872291;29;20049;-84
2022/09/15 01:52:04;;;;;;;5.65;2.85;;;14.90;91.20;;;;;;4865437;29;20057;-84
2022/09/15 01:54:35;;;;;;;4.50;2.22;;;14.90;90.90;;;;;;4850731;29;20779;-83
2022/09/15 01:57:03;;;;;;;5.00;2.67;;;14.90;90.90;;;;;;4878134;29;20075;-84
2022/09/15 01:59:30;;;;;;;6.68;2.80;;;14.90;90.90;;;;;;4875163;29;20082;-84
2022/09/15 02:02:13;;;;;;;5.65;2.53;;;15.00;90.90;;;;;;4886960;29;20412;-83
2022/09/15 02:04:51;;;;;;;5.38;2.50;;;15.00;90.80;;;;;;4875233;29;20513;-85
2022/09/15 02:07:56;;;;;;;6.15;2.80;;;15.10;90.80;;;;;;4896719;29;20457;-84
2022/09/15 02:10:39;;;;;;;6.78;2.70;;;15.10;90.80;;;;;;4891950;29;20497;-83
2022/09/15 02:13:15;;;;;;;5.78;2.75;;;15.10;90.80;;;;;;4849661;29;20053;-84
2022/09/15 02:15:56;;;;;;;6.30;2.78;;;15.00;90.80;;;;;;4883386;29;20065;-84
2022/09/15 02:18:42;;;;;;;5.00;2.97;;;15.10;90.80;;;;;;4891875;29;20052;-84
2022/09/15 02:21:28;;;;;;;6.47;2.88;;;15.10;90.80;;;;;;4899485;29;20457;-84
2022/09/15 02:24:02;;;;;;;6.15;3.20;;;15.00;90.80;;;;;;4879805;29;20044;-84
2022/09/15 02:26:33;;;;;;;6.55;3.40;;;15.00;90.90;;;;;;4872516;29;20079;-84
2022/09/15 02:29:06;;;;;;;4.82;2.33;;;14.90;90.90;;;;;;4886481;29;20059;-84
2022/09/15 02:31:38;;;;;;;6.07;2.72;;;14.80;91.00;;;;;;4873641;29;20484;-84
2022/09/15 02:34:25;;;;;;;6.18;2.58;;;14.80;91.10;;;;;;4872089;29;20048;-84
2022/09/15 02:36:54;;;;;;;4.60;1.98;;;14.70;91.10;;;;;;4902447;29;20122;-84
2022/09/15 02:39:26;;;;;;;4.63;2.33;;;14.70;91.20;;;;;;4902383;29;20126;-84
2022/09/15 02:41:53;;;;;;;4.43;1.83;;;14.60;91.20;;;;;;4865986;29;20049;-84
2022/09/15 02:44:22;;;;;;;5.13;2.45;;;14.60;91.20;;;;;;4862098;29;20053;-84
2022/09/15 02:46:49;;;;;;;5.25;2.30;;;14.60;91.20;;;;;;4881280;29;20056;-84
2022/09/15 02:49:17;;;;;;;6.90;2.97;;;14.60;91.20;;;;;;4848621;29;20048;-84
2022/09/15 02:51:46;;;;;;;4.45;2.33;;;14.50;91.20;;;;;;4868504;29;20049;-84
2022/09/15 02:54:13;;;;;;;4.45;2.30;;;14.50;91.10;;;;;;4865184;29;20077;-84
2022/09/15 02:56:40;;;;;;;4.45;1.65;;;14.50;91.10;;;;;;4877569;29;20511;-84
2022/09/15 02:59:07;;;;;;;3.60;2.08;;;14.50;91.10;;;;;;4867961;29;20039;-83
2022/09/15 03:01:37;;;;;;;4.68;1.88;;;14.50;91.20;;;;;;4888943;29;20044;-85
2022/09/15 03:04:05;;;;;;;5.82;2.50;;;14.50;91.10;;;;;;4883003;29;20072;-83
2022/09/15 03:06:35;;;;;;;4.82;2.45;;;14.50;91.10;;;;;;4877478;29;20045;-85
2022/09/15 03:09:06;;;;;;;5.13;2.80;;;14.50;91.10;;;;;;4882028;29;20052;-85
2022/09/15 03:11:34;;;;;;;7.47;3.60;;;14.50;91.00;;;;;;4889547;29;20045;-84
2022/09/15 03:14:04;;;;;;;5.53;3.20;;;14.50;91.10;;;;;;4895900;29;20139;-85
2022/09/15 03:16:34;;;;;;;4.72;2.50;;;14.50;91.00;;;;;;4896129;29;20052;-85
2022/09/15 03:19:02;;;;;;;4.85;2.55;;;14.50;91.00;;;;;;4835699;29;20056;-84
2022/09/15 03:21:30;;;;;;;6.22;2.50;;;14.50;91.00;;;;;;4879904;29;20052;-85
2022/09/15 03:23:58;;;;;;;4.43;2.08;;;14.50;91.00;;;;;;4889277;29;20059;-84
2022/09/15 03:26:25;;;;;;;3.58;2.20;;;14.50;91.00;;;;;;4896075;29;20049;-85
2022/09/15 03:28:52;;;;;;;4.85;2.30;;;14.50;91.20;;;;;;4877047;29;20048;-85
2022/09/15 03:31:19;;;;;;;3.85;2.30;;;14.50;91.00;;;;;;4866666;29;20052;-85
2022/09/15 03:33:49;;;;;;;5.28;2.03;;;14.40;91.00;;;;;;4876587;29;20075;-85
2022/09/15 03:36:16;;;;;;;3.40;1.90;;;14.40;91.10;;;;;;4891948;29;20051;-85
2022/09/15 03:38:43;;;;;;;4.65;1.98;;;14.40;91.10;;;;;;4898385;29;20059;-85
2022/09/15 03:41:11;;;;;;;3.92;1.92;;;14.40;91.00;;;;;;4850551;29;20057;-85
2022/09/15 03:43:38;;;;;;;4.63;2.17;;;14.50;91.00;;;;;;4870184;29;20075;-85
2022/09/15 03:46:07;;;;;;;3.70;1.80;;;14.50;91.00;;;;;;4882169;29;20048;-85
2022/09/15 03:48:35;;;;;;;2.60;1.25;;;14.50;90.90;;;;;;4873920;29;20049;-85
2022/09/15 03:51:04;;;;;;;2.63;1.42;;;14.60;90.90;;;;;;4891567;29;20103;-85
2022/09/15 03:53:33;;;;;;;5.05;1.98;;;14.60;90.90;;;;;;4849858;29;20152;-84
2022/09/15 03:56:36;;;;;;;3.50;1.50;;;14.60;90.80;;;;;;4863633;29;20088;-85
2022/09/15 03:59:04;;;;;;;5.25;1.63;;;14.60;90.80;;;;;;4860748;29;20053;-86
2022/09/15 04:01:32;;;;;;;4.47;1.67;;;14.70;90.80;;;;;;4892341;29;20052;-85
2022/09/15 04:03:59;;;;;;;4.07;1.55;;;14.70;90.70;;;;;;4889269;29;20107;-85
2022/09/15 04:06:26;;;;;;;4.40;1.38;;;14.70;90.70;;;;;;4867189;29;20055;-85
2022/09/15 04:08:54;;;;;;;3.78;1.90;;;14.70;90.70;;;;;;4866096;29;20493;-85
2022/09/15 04:11:21;;;;;;;4.40;1.80;;;14.70;90.60;;;;;;4878781;29;20055;-86
2022/09/15 04:13:49;;;;;;;4.18;1.45;;;14.70;90.60;;;;;;4869238;29;20104;-86
2022/09/15 04:16:18;;;;;;;4.60;1.80;;;14.70;90.60;;;;;;4868959;29;20080;-85
2022/09/15 04:18:45;;;;;;;3.63;1.73;;;14.70;90.60;;;;;;4899258;29;20466;-86
2022/09/15 04:21:19;;;;;;;3.20;1.20;;;14.70;90.60;;;;;;4870609;29;20059;-86
2022/09/15 04:23:47;;;;;;;5.03;1.73;;;14.80;90.60;;;;;;4874579;29;20048;-85
2022/09/15 04:26:24;;;;;;;3.28;1.40;;;14.80;90.60;;;;;;4881119;29;20056;-85
2022/09/15 04:28:52;;;;;;;3.20;1.85;;;14.80;90.60;;;;;;4874708;29;20152;-86
2022/09/15 04:31:19;;;;;;;2.67;1.55;;;14.80;90.60;;;;;;4885517;29;20142;-86
2022/09/15 04:33:46;;;;;;;3.05;1.60;;;14.80;90.60;;;;;;4875108;29;20059;-85
2022/09/15 04:36:20;;;;;;;3.42;1.58;;;14.80;90.60;;;;;;4878755;29;20087;-84
2022/09/15 04:38:48;;;;;;;5.90;1.90;;;14.80;90.60;;;;;;4892027;29;20090;-85
2022/09/15 04:41:16;;;;;;;4.82;2.03;;;14.80;90.60;;;;;;4880740;29;20709;-85
2022/09/15 04:43:45;;;;;;;3.90;1.60;;;14.80;90.60;;;;;;4897886;29;20064;-86
2022/09/15 04:46:13;;;;;;;3.95;1.48;;;14.80;90.60;;;;;;4850409;29;20139;-86
2022/09/15 04:48:41;;;;;;;3.67;1.48;;;14.80;90.60;;;;;;4880969;29;20045;-85
2022/09/15 04:51:12;;;;;;;3.70;1.35;;;14.80;90.60;;;;;;4876310;29;20099;-84
2022/09/15 04:53:40;;;;;;;2.38;1.10;;;14.80;90.60;;;;;;4896127;29;20059;-86
2022/09/15 04:56:13;;;;;;;3.92;1.25;;;14.80;90.60;;;;;;4881308;29;20144;-86
2022/09/15 04:58:49;;;;;;;3.63;1.00;;;14.80;90.60;;;;;;4890143;29;20048;-85
2022/09/15 05:01:21;;;;;;;2.70;0.88;;;14.80;90.60;;;;;;4866225;29;20059;-86
2022/09/15 05:03:48;;;;;;;2.25;0.85;;;14.80;90.60;;;;;;4870285;29;20498;-85
2022/09/15 05:06:18;;;;;;;2.15;1.00;;;14.80;90.60;;;;;;4867730;29;20071;-86
2022/09/15 05:08:47;;;;;;;1.85;0.90;;;14.90;90.60;;;;;;4870362;29;20053;-85
2022/09/15 05:11:18;;;;;;;3.38;1.20;;;14.90;90.50;;;;;;4887848;29;20136;-86
2022/09/15 05:13:46;;;;;;;5.10;1.17;;;14.90;90.50;;;;;;4887902;29;20049;-86
2022/09/15 05:16:19;;;;;;;2.28;0.65;;;14.90;90.50;;;;;;4871605;29;20108;-85
2022/09/15 05:18:48;;;;;;;1.77;0.90;;;14.90;90.40;;;;;;4884617;29;20469;-85
2022/09/15 05:21:18;;;;;;;3.97;1.00;;;14.90;90.40;;;;;;4863659;29;20041;-86
2022/09/15 05:23:46;;;;;;;2.63;0.73;;;14.90;90.40;;;;;;4871412;29;20056;-85
2022/09/15 05:26:19;;;;;;;2.72;0.80;;;14.90;90.40;;;;;;4880552;29;20505;-84
2022/09/15 05:28:46;;;;;;;2.55;0.70;;;15.00;90.50;;;;;;4887027;29;20060;-84
2022/09/15 05:31:25;;;;;;;4.68;1.00;;;15.00;90.40;;;;;;4857238;29;20412;-84
2022/09/15 05:33:53;;;;;;;2.60;0.80;;;15.00;90.40;;;;;;4881032;29;20092;-85
2022/09/15 05:36:23;;;;;;;2.05;0.65;;;15.00;90.30;;;;;;4881392;29;20048;-84
2022/09/15 05:38:55;;;;;;;3.13;0.57;;;15.00;90.20;;;;;;4892166;29;20048;-87
2022/09/15 05:41:23;;;;;;;2.47;0.57;;;15.10;90.20;;;;;;4868387;29;20219;-85
2022/09/15 05:43:52;;;;;;;2.53;0.60;;;15.10;90.20;;;;;;4897284;29;20049;-84
2022/09/15 05:46:19;;;;;;;2.45;0.63;;;15.10;90.20;;;;;;4881920;29;20057;-84
2022/09/15 05:48:46;;;;;;;3.42;0.90;;;15.10;90.10;;;;;;4849819;29;20037;-85
2022/09/15 05:51:14;;;;;;;3.55;0.63;;;15.10;90.30;;;;;;4878225;29;20056;-89
2022/09/15 05:53:41;;;;;;;1.65;0.52;;;15.10;90.00;;;;;;4876850;29;20052;-89
2022/09/15 05:56:13;;;;;;;3.72;0.70;;;15.10;89.90;;;;;;4901852;29;20590;-89
2022/09/15 05:58:43;;;;;;;1.98;0.75;;;15.20;89.90;;;;;;4868455;29;20124;-89
2022/09/15 06:01:15;;;;;;;2.50;0.60;;;15.20;89.90;;;;;;4872694;29;20131;-88
2022/09/15 06:03:43;;;;;;;1.90;0.60;;;15.20;89.80;;;;;;4888699;29;20048;-88
2022/09/15 06:06:11;;;;;;;1.58;0.75;;;15.20;89.80;;;;;;4888077;29;20139;-88
2022/09/15 06:08:42;;;;;;;2.15;0.70;;;15.20;89.70;;;;;;4870625;29;20540;-90
2022/09/15 06:11:17;;;;;;;3.78;0.45;;;15.20;89.60;;;;;;4866114;29;20474;-85
2022/09/15 06:13:45;;;;;;;3.10;0.63;;;15.20;89.60;;;;;;4888142;29;20144;-90
2022/09/15 06:16:17;;;;;;;1.08;0.50;;;15.30;89.60;;;;;;4868056;29;20057;-89
2022/09/15 06:18:52;;;;;;;2.50;0.60;;;15.20;89.50;;;;;;4871841;29;20104;-88
2022/09/15 06:21:25;;;;;;;2.70;0.60;;;15.30;89.40;;;;;;4869960;29;20052;-90
2022/09/15 06:24:00;;;;;;;2.72;0.77;;;15.30;89.30;;;;;;4880225;29;20052;-88
2022/09/15 06:26:27;;;;;;;1.52;0.52;;;15.30;89.20;;;;;;4866704;29;20049;-88
2022/09/15 06:28:57;;;;;;;2.58;0.68;;;15.40;89.20;;;;;;4854041;29;20045;-89
2022/09/15 06:31:26;;;;;;;3.15;1.02;;;15.40;89.00;;;;;;4883836;29;20052;-85
2022/09/15 06:33:56;;;;;;;2.55;0.85;;;15.50;88.80;;;;;;4881886;29;20053;-86
2022/09/15 06:36:26;;;;;;;5.82;1.30;;;15.60;88.50;;;;;;4867782;29;20052;-85
2022/09/15 06:38:53;;;;;;;3.00;0.82;;;15.60;88.30;;;;;;4868141;29;20068;-85
2022/09/15 06:41:21;;;;;;;2.33;0.85;;;15.80;88.20;;;;;;4868119;29;20052;-86
2022/09/15 06:43:48;;;;;;;3.15;1.10;;;15.80;87.90;;;;;;4876355;29;20108;-85
2022/09/15 06:46:22;;;;;;;1.60;0.80;;;15.90;87.70;;;;;;4883742;29;20112;-87
2022/09/15 06:48:52;;;;;;;1.50;0.70;;;15.90;87.50;;;;;;4883501;29;20043;-86
2022/09/15 06:51:24;;;;;;;3.70;0.68;;;16.00;87.60;;;;;;4868550;29;20111;-86
2022/09/15 06:53:52;;;;;;;;;;;16.00;87.50;;;;;;4880374;29;20052;-86
2022/09/15 06:56:21;;;;;;;2.40;0.88;;;15.90;87.60;;;;;;4883185;29;20269;-84
2022/09/15 06:58:48;;;;;;;1.58;0.70;;;15.90;87.60;;;;;;4894516;29;20071;-84
2022/09/15 07:01:28;;;;;;;3.30;0.70;;;15.90;87.60;;;;;;4871837;29;20056;-85
2022/09/15 07:03:57;;;;;;;2.20;0.80;;;15.90;87.50;;;;;;4887240;29;20116;-85
2022/09/15 07:06:27;;;;;;;3.72;0.60;;;15.90;87.40;;;;;;4901918;29;20048;-86
2022/09/15 07:08:56;;;;;;;2.58;0.80;;;15.90;88.00;;;;;;4901231;29;20055;-85
2022/09/15 07:11:23;;;;;;;2.75;0.80;;;16.00;87.30;;;;;;4882917;29;20159;-86
2022/09/15 07:13:51;;;;;;;2.72;0.70;;;16.10;87.10;;;;;;4868999;29;20100;-86
2022/09/15 07:16:19;;;;;;;2.75;1.13;;;16.20;86.80;;;;;;4898771;29;20055;-86
2022/09/15 07:18:47;;;;;;;2.65;0.70;;;16.20;86.70;;;;;;4867439;29;20052;-86
2022/09/15 07:21:18;;;;;;;1.73;0.70;;;16.20;86.60;;;;;;4885761;29;20055;-86
2022/09/15 07:23:46;;;;;;;1.55;0.50;;;16.20;86.50;;;;;;4891078;29;20047;-86
2022/09/15 07:26:15;;;;;;;2.25;0.70;;;16.30;86.30;;;;;;4882593;29;20049;-86
2022/09/15 07:28:45;;;;;;;2.63;0.60;;;16.40;86.10;;;;;;4875502;29;20080;-86
2022/09/15 07:31:16;;;;;;;2.45;0.98;;;16.40;85.60;;;;;;4885511;29;20450;-86
2022/09/15 07:33:43;;;;;;;1.70;0.40;;;16.50;85.30;;;;;;4882885;29;20063;-86
2022/09/15 07:36:11;;;;;;;1.38;0.50;;;16.60;85.30;;;;;;4881475;29;20456;-85
2022/09/15 07:38:41;;;;;;;3.70;0.50;;;16.70;85.00;;;;;;4877957;29;20581;-85
2022/09/15 07:41:20;;;;;;;1.70;0.52;;;16.70;84.70;;;;;;4876968;29;20085;-86
2022/09/15 07:43:48;;;;;;;1.38;0.30;;;16.80;84.50;;;;;;4897745;29;20083;-85
2022/09/15 07:46:15;;;;;;;1.80;0.45;;;16.70;85.10;;;;;;4898222;29;20080;-84
2022/09/15 07:48:49;;;;;;;4.22;0.40;;;16.70;84.20;;;;;;4866927;29;20044;-85
2022/09/15 07:51:19;;;;;;;3.42;0.60;;;16.70;84.20;;;;;;4876465;29;20048;-84
2022/09/15 07:53:47;;;;;;;1.35;0.38;;;16.70;84.00;;;;;;4854190;29;20498;-85
2022/09/15 07:56:17;;;;;;;0.98;0.38;;;16.80;83.90;;;;;;4900742;29;20098;-85
2022/09/15 07:58:48;;;;;;;2.35;0.28;;;17.10;83.40;;;;;;4885059;29;20056;-85
2022/09/15 08:01:17;;;;;;;1.35;0.30;;;17.30;82.90;;;;;;4859215;29;20056;-85
2022/09/15 08:03:47;;;;;;;2.60;0.30;;;17.40;82.50;;;;;;4862243;29;20116;-85
2022/09/15 08:06:20;;;;;;;2.42;0.30;;;17.50;82.10;;;;;;4889638;29;20056;-85
2022/09/15 08:08:49;;;;;;;3.13;0.30;;;17.50;81.80;;;;;;4878657;29;20134;-84
2022/09/15 08:11:26;;;;;;;2.70;0.40;;;17.40;81.70;;;;;;4877725;29;20051;-84
2022/09/15 08:13:53;;;;;;;3.30;0.38;;;17.30;81.70;;;;;;4884068;29;20052;-84
2022/09/15 08:16:22;;;;;;;2.97;0.43;;;17.30;82.00;;;;;;4886672;29;20060;-84
2022/09/15 08:18:52;;;;;;;1.95;0.45;;;17.20;81.80;;;;;;4872582;29;20056;-84
2022/09/15 08:21:20;;;;;;;2.60;0.55;;;17.20;81.40;;;;;;4880235;29;20128;-85
2022/09/15 08:23:56;;;;;;;3.90;0.50;;;17.10;81.50;;;;;;4868301;29;20056;-84
2022/09/15 08:26:25;;;;;;;2.22;0.57;;;17.10;81.60;;;;;;4875612;29;20144;-84
2022/09/15 08:28:52;;;;;;;4.85;0.52;;;17.10;81.50;;;;;;4873030;29;20084;-84
2022/09/15 08:31:22;;;;;;;2.35;0.50;;;17.10;81.80;;;;;;4870483;29;20100;-84
2022/09/15 08:33:52;;;;;;;1.58;0.40;;;17.20;81.70;;;;;;4854155;29;20057;-83
2022/09/15 08:36:19;;;;;;;2.42;0.63;;;17.30;81.60;;;;;;4890062;29;20049;-84
2022/09/15 08:38:49;;;;;;;2.63;0.50;;;17.30;81.40;;;;;;4845400;29;20131;-86
2022/09/15 08:41:51;;;;;;;1.50;0.50;;;17.40;81.40;;;;;;4869873;29;20108;-84
2022/09/15 08:44:32;;;;;;;1.70;0.45;;;17.50;81.10;;;;;;4825067;29;20101;-84
2022/09/15 08:47:22;;;;;;;3.03;0.50;;;17.60;81.00;;;;;;4868488;29;20115;-83
2022/09/15 08:49:57;;;;;;;2.30;0.50;;;17.60;80.80;;;;;;4857153;29;20096;-84
2022/09/15 08:52:34;;;;;;;1.70;0.30;;;17.70;81.10;;;;;;4890878;29;20060;-83
2022/09/15 08:55:10;;;;;;;2.05;0.30;;;17.70;80.30;;;;;;4892202;29;20048;-84
2022/09/15 08:57:40;;;;;;;1.55;0.40;;;17.70;80.20;;;;;;4871176;29;20083;-84
2022/09/15 09:00:14;;;;;;;2.72;0.30;;;17.80;80.30;;;;;;4880908;29;20667;-84
2022/09/15 09:02:47;;;;;;;3.53;0.20;;;17.90;80.10;;;;;;4877789;29;20147;-84
2022/09/15 09:05:43;;;;;;;0.90;0.22;;;18.00;79.90;;;;;;4862954;29;20049;-84
2022/09/15 09:08:24;;;;;;;2.38;0.30;;;18.20;79.60;;;;;;4875481;29;20041;-85
2022/09/15 09:10:58;;;;;;;3.50;0.43;;;18.30;79.30;;;;;;4883707;29;20053;-84
2022/09/15 09:14:02;;;;;;;2.45;0.32;;;18.30;78.30;;;;;;4874602;29;20135;-84
2022/09/15 09:16:38;;;;;;;0.98;0.40;;;18.40;78.10;;;;;;4835992;29;20044;-83
2022/09/15 09:19:40;;;;;;;3.67;0.40;;;18.40;77.60;;;;;;4889401;29;20045;-83
2022/09/15 09:22:19;;;;;;;1.33;0.20;;;18.40;77.00;;;;;;4887028;29;20091;-83
2022/09/15 09:24:52;;;;;;;2.08;0.22;;;18.40;77.20;;;;;;4866899;29;20101;-84
2022/09/15 09:27:24;;;;;;;1.33;0.20;;;18.50;76.80;;;;;;4877365;29;20049;-84
2022/09/15 09:30:15;;;;;;;1.08;0.10;;;18.50;76.40;;;;;;4879320;29;20143;-85
2022/09/15 09:32:53;;;;;;;1.85;0.10;;;18.60;76.50;;;;;;4877680;29;20509;-84
2022/09/15 09:35:52;;;;;;;2.47;0.20;;;18.60;76.60;;;;;;4868542;29;20735;-83
2022/09/15 09:38:24;;;;;;;1.50;0.13;;;18.60;75.20;;;;;;4843192;29;20422;-84
2022/09/15 09:40:52;;;;;;;;;;;18.60;75.10;;;;;;4885117;29;20052;-84
2022/09/15 09:43:19;;;;;;;1.88;0.32;;;18.50;74.00;;;;;;4882026;29;19935;-84
2022/09/15 09:45:46;;;;;;;3.10;0.28;;;18.60;74.40;;;;;;4859799;29;20048;-84
2022/09/15 09:48:20;;;;;;;2.03;0.30;;;18.60;74.20;;;;;;4859785;29;20119;-84
2022/09/15 09:50:50;;;;;;;2.40;0.17;;;18.70;74.20;;;;;;4883600;29;20127;-83
2022/09/15 09:53:23;;;;;;;1.70;0.20;;;18.80;74.00;;;;;;4894920;29;20372;-84
2022/09/15 09:55:52;;;;;;;2.42;0.20;;;18.80;74.10;;;;;;4885325;29;20072;-84
2022/09/15 09:58:22;;;;;;;1.75;0.30;;;18.80;73.20;;;;;;4903209;29;20056;-85
2022/09/15 10:00:50;;;;;;;1.42;0.20;;;18.70;72.50;;;;;;4898958;29;20097;-85
2022/09/15 10:03:21;;;;;;;1.75;0.20;;;18.60;72.40;;;;;;4879343;29;20048;-84
2022/09/15 10:06:19;;;;;;;1.63;0.30;;;18.60;72.60;;;;;;4880621;29;20044;-84
2022/09/15 10:09:07;;;;;;;0.90;0.10;;;18.60;72.90;;;;;;4860051;29;20092;-85
2022/09/15 10:11:47;;;;;;;0.68;0.10;;;18.70;73.00;;;;;;4889523;29;20044;-84
2022/09/15 10:14:35;;;;;;;1.77;0.10;;;18.70;72.80;;;;;;4882968;29;20138;-85
2022/09/15 10:17:08;;;;;;;1.65;0.20;;;18.80;72.30;;;;;;4891059;29;20055;-85
2022/09/15 10:19:51;;;;;;;0.68;0.10;;;18.80;72.50;;;;;;4896670;29;20072;-84
2022/09/15 10:22:30;;;;;;;1.77;0.10;;;18.70;72.80;;;;;;4877283;29;20107;-85
2022/09/15 10:24:59;;;;;;;0.57;0.10;;;18.70;72.90;;;;;;4864993;29;20052;-84
2022/09/15 10:27:29;;;;;;;0.75;0.10;;;18.50;73.20;;;;;;4865944;29;20568;-84
2022/09/15 10:30:12;;;;;;;1.25;0.10;;;18.50;73.50;;;;;;4883626;29;20067;-84
2022/09/15 10:32:40;;;;;;;;;;;18.30;73.40;;;;;;4879013;29;20048;-84
2022/09/15 10:35:13;;;;;;;1.95;0.30;;;18.10;73.90;;;;;;4877240;29;19924;-84
2022/09/15 10:37:59;;;;;;;1.02;0.20;;;17.90;74.40;;;;;;4880610;29;20052;-83
2022/09/15 10:40:50;;;;;;;3.45;0.40;;;17.70;74.70;;;;;;4896525;29;20116;-85
2022/09/15 10:44:05;;;;;;;2.72;0.30;;;17.20;75.50;;;;;;4899138;29;20049;-84
2022/09/15 10:46:40;;;;;;;3.47;0.40;;;16.70;77.50;;;;;;4856617;29;20060;-84
2022/09/15 10:49:32;;;;;;;3.60;0.30;;;16.30;78.70;;;;;;4886403;29;20060;-85
2022/09/15 10:52:29;;;;;;;1.35;0.20;;;16.10;79.00;;;;;;4901601;29;20104;-84
2022/09/15 10:55:05;;;;;;;2.70;0.43;;;16.10;79.20;;;;;;4893496;29;20131;-85
2022/09/15 10:57:41;;;;;;;2.35;0.30;;;16.20;79.20;;;;;;4883332;29;20423;-83
2022/09/15 11:00:30;;;;;;;2.42;0.20;;;16.30;78.60;;;;;;4893054;29;20121;-84
2022/09/15 11:03:00;;;;;;;1.52;0.20;;;16.50;78.10;;;;;;4883280;29;20461;-85
2022/09/15 11:05:39;;;;;;;0.80;0.10;;;16.70;77.70;;;;;;4893698;29;20501;-86
2022/09/15 11:08:39;;;;;;;2.00;0.17;;;17.00;77.00;;;;;;4883416;29;20140;-87
2022/09/15 11:11:24;;;;;;;3.15;0.10;;;17.20;76.40;;;;;;4897070;29;20049;-84
2022/09/15 11:14:06;;;;;;;1.70;0.20;;;17.40;75.80;;;;;;4892596;29;20099;-87
2022/09/15 11:16:40;;;;;;;1.90;0.20;;;17.60;75.00;;;;;;4888393;29;20040;-86
2022/09/15 11:19:48;;;;;;;2.08;0.43;;;17.70;74.70;;;;;;4885256;29;20051;-85
2022/09/15 11:22:20;;;;;;;1.67;0.20;;;17.90;74.60;;;;;;4854284;29;20048;-82
2022/09/15 11:24:57;;;;;;;0.55;0.10;;;18.10;74.30;;;;;;4881789;29;20084;-85
2022/09/15 11:27:40;;;;;;;2.10;0.20;;;18.30;74.20;;;;;;4873124;29;20049;-86
2022/09/15 11:30:15;;;;;;;0.85;0.20;;;18.50;74.00;;;;;;4871182;29;20097;-83
2022/09/15 11:33:00;;;;;;;1.40;0.20;;;18.50;73.70;;;;;;4882104;29;20131;-83
2022/09/15 11:35:40;;;;;;;3.17;0.30;;;18.60;73.30;;;;;;4876760;29;20051;-82
2022/09/15 11:38:20;;;;;;;1.42;0.30;;;18.60;72.20;;;;;;4879759;29;20084;-82
2022/09/15 11:40:53;;;;;;;4.20;0.30;;;18.60;71.60;;;;;;4889629;29;20049;-83
2022/09/15 11:43:31;;;;;;;2.53;0.40;;;18.60;71.00;;;;;;4898439;29;20524;-83
2022/09/15 11:46:00;;;;;;;2.72;0.30;;;18.70;71.00;;;;;;4881686;29;20052;-83
2022/09/15 11:48:42;;;;;;;2.00;0.30;;;18.80;70.50;;;;;;4895980;29;20462;-83
2022/09/15 11:51:14;;;;;;;2.88;0.20;;;18.90;69.60;;;;;;4888611;29;20067;-82
2022/09/15 11:53:57;;;;;;;3.47;0.30;;;19.00;69.80;;;;;;4897133;29;20545;-84
2022/09/15 11:56:39;;;;;;;1.83;0.20;;;19.10;69.30;;;;;;4878028;29;20489;-83
2022/09/15 11:59:21;;;;;;;3.05;0.28;;;19.30;69.20;;;;;;4881056;29;20064;-83
2022/09/15 12:02:00;;;;;;;5.97;0.30;;;19.40;69.10;;;;;;4888216;29;20127;-84
2022/09/15 12:04:32;;;;;;;2.72;0.30;;;19.50;67.90;;;;;;4879025;29;20044;-84
2022/09/15 12:07:07;;;;;;;1.60;0.30;;;19.60;68.30;;;;;;4893545;29;20075;-84
2022/09/15 12:09:39;;;;;;;2.47;0.30;;;19.70;67.80;;;;;;4901218;29;20049;-82
2022/09/15 12:12:15;;;;;;;1.15;0.20;;;19.70;67.10;;;;;;4884907;29;20370;-84
2022/09/15 12:14:47;;;;;;;1.20;0.20;;;19.70;67.10;;;;;;4896831;29;20052;-85
2022/09/15 12:17:34;;;;;;;4.13;0.50;;;19.70;67.30;;;;;;4882896;29;20044;-83
2022/09/15 12:20:11;;;;;;;2.55;0.30;;;19.80;66.10;;;;;;4900418;29;20051;-85
2022/09/15 12:23:03;;;;;;;3.88;0.30;;;19.80;66.00;;;;;;4897297;29;20052;-85
2022/09/15 12:25:43;;;;;;;3.28;0.30;;;19.80;65.90;;;;;;4875991;29;20430;-84
2022/09/15 12:28:22;;;;;;;1.92;0.30;;;19.90;66.40;;;;;;4866205;29;20068;-83
2022/09/15 12:31:11;;;;;;;2.90;0.45;;;20.00;65.20;;;;;;4886379;29;20052;-84
2022/09/15 12:33:41;;;;;;;6.05;0.40;;;20.00;64.40;;;;;;4890492;29;20124;-84
2022/09/15 12:36:33;;;;;;;3.40;0.38;;;19.90;63.20;;;;;;4886304;29;20048;-84
2022/09/15 12:39:02;;;;;;;3.20;0.45;;;19.70;63.80;;;;;;4885025;29;20504;-84
2022/09/15 12:41:32;;;;;;;2.25;0.30;;;19.50;64.00;;;;;;4896710;29;20040;-83
2022/09/15 12:44:16;;;;;;;2.50;0.50;;;19.40;64.70;;;;;;4872098;29;20108;-84
2022/09/15 12:46:51;;;;;;;3.70;0.57;;;19.30;64.80;;;;;;4867000;29;20135;-85
2022/09/15 12:49:26;;;;;;;2.40;0.40;;;19.20;64.80;;;;;;4889263;29;20054;-85
2022/09/15 12:51:54;;;;;;;2.13;0.30;;;19.10;65.30;;;;;;4885573;29;20069;-84
2022/09/15 12:54:31;;;;;;;2.08;0.20;;;19.10;65.00;;;;;;4861751;29;20056;-85
2022/09/15 12:57:02;;;;;;;1.40;0.25;;;19.10;65.30;;;;;;4852562;29;20139;-85
2022/09/15 12:59:29;;;;;;;3.78;0.35;;;19.10;65.10;;;;;;4847378;29;20045;-84
2022/09/15 13:01:57;;;;;;;1.83;0.15;;;19.20;65.10;;;;;;4861583;29;20504;-84
2022/09/15 13:04:42;;;;;;;2.15;0.22;;;19.10;64.20;;;;;;4837474;29;20549;-84
2022/09/15 13:07:15;;;;;;;2.47;0.15;;;19.10;63.80;;;;;;4861745;29;20049;-84
2022/09/15 13:09:58;;;;;;;0.40;0.10;;;19.10;63.90;;;;;;4872049;29;20049;-85
2022/09/15 13:12:31;;;;;;;1.80;0.20;;;19.10;64.00;;;;;;4843799;29;20105;-84
2022/09/15 13:15:11;;;;;;;0.85;0.20;;;19.30;63.40;;;;;;4844168;29;20049;-84
2022/09/15 13:17:45;;;;;;;0.95;0.35;;;19.40;63.20;;;;;;4895354;29;20138;-85
2022/09/15 13:20:28;;;;;;;1.00;0.28;;;19.60;61.30;;;;;;4877037;29;20671;-85
2022/09/15 13:23:00;;;;;;;2.17;0.20;;;19.80;61.20;;;;;;4870150;29;20041;-85